Terminal Aerodrome Forecast
Issued by NWS Pittsburgh, PA

Current Version | Previous Version | Graphics & Text | Print | Product List | Glossary On
Versions: 1 2 3 4 5 6 7 8 9 10 11 12 13 14 15 16 17 18 19 20 21 22 23 24 25 26 27 28 29 30 31 32 33
000
FTUS41 KPBZ 302300
TAFPIT
TAF
KPIT 302330Z 0100/0206 36005KT P6SM VCTS BKN050CB
      TEMPO 0100/0101 3SM -SHRA BKN035
     FM010400 VRB03KT 5SM BR BKN035
     FM010600 VRB03KT 3SM BR BKN020
     FM010900 VRB03KT 1SM BR BKN010
     FM011300 14005KT 5SM BR BKN020
     FM011500 12005KT P6SM BKN035=

USA.gov is the U.S. government's official web portal to all federal, state and local government web resources and services.